Time;durP1;ratioP1;P1;durP2;ratioP2;P2;SDS_P1;SDS_P2;PMS_P1;PMS_P2;Temp;Humidity;BMP_temperature;BMP_pressure;BME280_temperature;BME280_humidity;BME280_pressure;Samples;Min_cycle;Max_cycle;Signal;HPM_P1;HPM_P2
2023/05/22 02:06:38;;;;;;;10.05;7.32;;;18.00;99.90;;;;;;4875362;28;20128;-80
2023/05/22 02:09:08;;;;;;;13.48;7.93;;;18.00;99.90;;;;;;4810245;29;20062;-81
2023/05/22 02:11:38;;;;;;;13.07;10.00;;;18.00;99.90;;;;;;4817085;29;20058;-80
2023/05/22 02:14:07;;;;;;;;;;;17.90;99.90;;;;;;4819736;29;20137;-81
2023/05/22 02:16:33;;;;;;;12.85;8.15;;;17.90;99.90;;;;;;4841163;29;19923;-82
2023/05/22 02:19:06;;;;;;;15.48;8.88;;;17.90;99.90;;;;;;4842431;29;20060;-82
2023/05/22 02:21:35;;;;;;;11.02;8.32;;;17.90;99.90;;;;;;4914610;23;20055;-35
2023/05/22 02:24:01;;;;;;;12.80;8.73;;;17.90;99.90;;;;;;4913270;29;20418;-35
2023/05/22 02:26:27;;;;;;;15.23;10.63;;;17.90;99.90;;;;;;4910905;29;20059;-35
2023/05/22 02:28:53;;;;;;;12.88;9.85;;;17.80;99.90;;;;;;4913100;29;20158;-35
2023/05/22 02:31:18;;;;;;;14.88;10.60;;;17.80;99.90;;;;;;4909767;29;20094;-35
2023/05/22 02:33:44;;;;;;;11.13;8.38;;;17.80;99.90;;;;;;4910006;29;20060;-35
2023/05/22 02:36:11;;;;;;;14.23;10.73;;;17.80;99.90;;;;;;4914777;29;20063;-35
2023/05/22 02:38:38;;;;;;;16.58;11.80;;;17.80;99.90;;;;;;4916060;29;20490;-35
2023/05/22 02:41:03;;;;;;;14.60;10.73;;;17.80;99.90;;;;;;4913796;29;20060;-35
2023/05/22 02:43:29;;;;;;;16.38;11.32;;;17.80;99.90;;;;;;4909579;29;20116;-35
2023/05/22 02:45:55;;;;;;;15.63;11.32;;;17.80;99.90;;;;;;4915263;29;20067;-35
2023/05/22 02:48:20;;;;;;;16.38;11.15;;;17.90;99.90;;;;;;4914014;29;20441;-35
2023/05/22 02:50:47;;;;;;;16.40;12.52;;;17.90;99.90;;;;;;4913706;29;20086;-35
2023/05/22 02:53:14;;;;;;;15.60;11.35;;;17.90;99.90;;;;;;4910790;29;20052;-35
2023/05/22 02:55:40;;;;;;;15.05;10.75;;;17.90;99.90;;;;;;4911619;29;20055;-35
2023/05/22 02:58:10;;;;;;;17.33;12.18;;;17.80;99.90;;;;;;4912355;29;20504;-35
2023/05/22 03:00:38;;;;;;;15.10;11.30;;;17.80;99.90;;;;;;4912734;29;20052;-35
2023/05/22 03:03:05;;;;;;;13.35;9.27;;;17.90;99.90;;;;;;4910411;29;20139;-35
2023/05/22 03:05:31;;;;;;;14.27;11.38;;;17.90;99.90;;;;;;4911387;29;20138;-35
2023/05/22 03:07:57;;;;;;;13.30;9.82;;;17.80;99.90;;;;;;4916331;29;20060;-35
2023/05/22 03:10:23;;;;;;;13.00;8.73;;;17.80;99.90;;;;;;4912252;29;20103;-35
2023/05/22 03:12:52;;;;;;;17.02;11.63;;;17.80;99.90;;;;;;4913472;29;20127;-35
2023/05/22 03:15:18;;;;;;;16.10;11.20;;;17.70;99.90;;;;;;4915261;29;20043;-35
2023/05/22 03:17:44;;;;;;;13.07;10.20;;;17.70;99.90;;;;;;4895004;29;20461;-35
2023/05/22 03:20:15;;;;;;;13.77;9.60;;;17.70;99.90;;;;;;4914976;29;20048;-35
2023/05/22 03:22:47;;;;;;;15.32;11.80;;;17.70;99.90;;;;;;4912330;29;20517;-35
2023/05/22 03:25:12;;;;;;;14.30;10.57;;;17.70;99.90;;;;;;4909443;29;20082;-35
2023/05/22 03:27:41;;;;;;;19.02;13.93;;;17.60;99.90;;;;;;4910117;29;20076;-35
2023/05/22 03:30:07;;;;;;;17.45;12.60;;;17.60;99.90;;;;;;4911551;29;20122;-35
2023/05/22 03:32:36;;;;;;;15.55;11.65;;;17.60;99.90;;;;;;4911715;29;20108;-35
2023/05/22 03:35:03;;;;;;;20.02;13.00;;;17.60;99.90;;;;;;4908197;29;20056;-35
2023/05/22 03:37:28;;;;;;;19.40;14.07;;;17.60;99.90;;;;;;4911315;29;20062;-35
2023/05/22 03:39:54;;;;;;;18.80;13.98;;;17.60;99.90;;;;;;4913880;29;20052;-34
2023/05/22 03:42:20;;;;;;;17.95;13.63;;;17.60;99.90;;;;;;4910803;29;20067;-35
2023/05/22 03:44:45;;;;;;;17.00;12.43;;;17.70;99.90;;;;;;4909834;29;20497;-35
2023/05/22 03:47:11;;;;;;;16.13;12.55;;;17.70;99.90;;;;;;4907634;29;20545;-35
2023/05/22 03:49:37;;;;;;;14.18;11.18;;;17.60;99.90;;;;;;4910275;29;20045;-35
2023/05/22 03:52:02;;;;;;;19.60;12.63;;;17.60;99.90;;;;;;4910332;29;20119;-35
2023/05/22 03:54:28;;;;;;;17.75;13.75;;;17.50;99.90;;;;;;4914299;29;20067;-35
2023/05/22 03:56:54;;;;;;;17.25;12.80;;;17.50;99.90;;;;;;4907664;29;20063;-34
2023/05/22 03:59:20;;;;;;;16.42;12.50;;;17.50;99.90;;;;;;4909701;29;20119;-34
2023/05/22 04:01:47;;;;;;;22.25;13.52;;;17.50;99.90;;;;;;4891908;29;20056;-34
2023/05/22 04:04:13;;;;;;;19.30;13.73;;;17.50;99.90;;;;;;4913025;29;20148;-34
2023/05/22 04:06:42;;;;;;;19.50;12.48;;;17.60;99.90;;;;;;4910004;29;20618;-35
2023/05/22 04:09:11;;;;;;;16.05;11.55;;;17.60;99.90;;;;;;4911120;29;20465;-34
2023/05/22 04:11:40;;;;;;;19.13;12.60;;;17.60;99.90;;;;;;4909959;29;20071;-34
2023/05/22 04:14:07;;;;;;;17.67;12.82;;;17.50;99.90;;;;;;4911618;29;20424;-35
2023/05/22 04:16:33;;;;;;;15.77;11.23;;;17.50;99.90;;;;;;4915488;29;20169;-34
2023/05/22 04:19:02;;;;;;;13.27;10.45;;;17.50;99.90;;;;;;4913033;29;20056;-36
2023/05/22 04:21:29;;;;;;;20.30;13.57;;;17.50;99.90;;;;;;4917710;29;20048;-35
2023/05/22 04:23:54;;;;;;;16.00;12.15;;;17.50;99.90;;;;;;4914917;29;20048;-35
2023/05/22 04:26:20;;;;;;;19.05;13.07;;;17.40;99.90;;;;;;4914955;29;20103;-36
2023/05/22 04:28:46;;;;;;;18.65;12.68;;;17.40;99.90;;;;;;4915784;29;20105;-35
2023/05/22 04:31:12;;;;;;;19.70;14.57;;;17.40;99.90;;;;;;4915533;29;20067;-35
2023/05/22 04:33:38;;;;;;;17.42;13.07;;;17.40;99.90;;;;;;4914448;29;20111;-35
2023/05/22 04:36:05;;;;;;;18.42;13.35;;;17.30;99.90;;;;;;4912669;29;20083;-35
2023/05/22 04:38:35;;;;;;;16.80;11.23;;;17.30;99.90;;;;;;4915494;29;20126;-35
2023/05/22 04:41:02;;;;;;;16.63;12.15;;;17.40;99.90;;;;;;4899396;29;20506;-35
2023/05/22 04:43:28;;;;;;;16.08;12.52;;;17.30;99.90;;;;;;4916598;29;20676;-35
2023/05/22 04:45:55;;;;;;;19.05;13.38;;;17.30;99.90;;;;;;4915921;29;20115;-35
2023/05/22 04:48:21;;;;;;;17.80;13.05;;;17.30;99.90;;;;;;4917355;29;20122;-35
2023/05/22 04:50:48;;;;;;;18.55;13.77;;;17.30;99.90;;;;;;4914390;29;20503;-35
2023/05/22 04:53:14;;;;;;;20.02;14.23;;;17.30;99.90;;;;;;4915853;29;20131;-35
2023/05/22 04:55:40;;;;;;;19.25;13.93;;;17.30;99.90;;;;;;4920238;29;20455;-35
2023/05/22 04:58:06;;;;;;;20.60;14.23;;;17.30;99.90;;;;;;4913245;29;20051;-35
2023/05/22 05:00:32;;;;;;;19.50;14.57;;;17.40;99.90;;;;;;4920213;29;20096;-34
2023/05/22 05:02:59;;;;;;;21.20;14.65;;;17.40;99.90;;;;;;4913378;29;20048;-35
2023/05/22 05:05:24;;;;;;;22.88;14.95;;;17.40;99.90;;;;;;4912908;29;20048;-35
2023/05/22 05:07:50;;;;;;;21.90;15.93;;;17.40;99.90;;;;;;4899823;29;20478;-35
2023/05/22 05:10:16;;;;;;;21.85;14.73;;;17.40;99.90;;;;;;4887716;29;20476;-35
2023/05/22 05:12:42;;;;;;;22.08;15.32;;;17.30;99.90;;;;;;4895129;29;20514;-35
2023/05/22 05:15:08;;;;;;;20.80;15.05;;;17.30;99.90;;;;;;4908179;29;20051;-35
2023/05/22 05:17:34;;;;;;;22.42;16.45;;;17.30;99.90;;;;;;4906147;29;20300;-35
2023/05/22 05:20:00;;;;;;;24.45;16.42;;;17.30;99.90;;;;;;4911746;29;20056;-35
2023/05/22 05:22:25;;;;;;;23.20;16.20;;;17.20;99.90;;;;;;4908964;29;20099;-35
2023/05/22 05:24:51;;;;;;;20.92;15.95;;;17.20;99.90;;;;;;4906384;29;20056;-35
2023/05/22 05:27:16;;;;;;;20.70;15.77;;;17.20;99.90;;;;;;4907946;29;20448;-35
2023/05/22 05:29:42;;;;;;;21.55;15.70;;;17.20;99.90;;;;;;4904999;29;20513;-35
2023/05/22 05:32:10;;;;;;;24.92;16.42;;;17.20;99.90;;;;;;4903608;29;20498;-35
2023/05/22 05:34:35;;;;;;;22.20;15.63;;;17.20;99.90;;;;;;4908538;29;20111;-35
2023/05/22 05:37:01;;;;;;;26.83;16.52;;;17.20;99.90;;;;;;4904696;29;20067;-35
2023/05/22 05:39:27;;;;;;;23.00;15.32;;;17.20;99.90;;;;;;4908726;29;20060;-35
2023/05/22 05:41:53;;;;;;;26.15;16.73;;;17.20;99.90;;;;;;4909147;29;20055;-35
2023/05/22 05:44:18;;;;;;;23.42;16.23;;;17.20;99.90;;;;;;4909806;29;20490;-35
2023/05/22 05:46:45;;;;;;;21.45;15.68;;;17.20;99.90;;;;;;4908566;29;20052;-35
2023/05/22 05:49:10;;;;;;;21.02;15.75;;;17.20;99.90;;;;;;4911053;29;20482;-35
2023/05/22 05:51:37;;;;;;;26.13;15.90;;;17.30;99.90;;;;;;4903529;29;20074;-35
2023/05/22 05:54:03;;;;;;;21.33;15.27;;;17.30;99.90;;;;;;4903776;29;20431;-35
2023/05/22 05:56:29;;;;;;;26.45;16.98;;;17.40;99.90;;;;;;4897064;29;20056;-35
2023/05/22 05:58:54;;;;;;;23.08;16.25;;;17.40;99.90;;;;;;4907024;29;20059;-35
2023/05/22 06:01:23;;;;;;;20.17;14.85;;;17.50;99.90;;;;;;4903826;29;20071;-35
2023/05/22 06:03:49;;;;;;;22.17;15.00;;;17.60;99.90;;;;;;4898051;29;20086;-35
2023/05/22 06:06:16;;;;;;;21.83;14.48;;;17.60;99.90;;;;;;4903313;29;20146;-35
2023/05/22 06:08:42;;;;;;;21.02;15.23;;;17.70;99.90;;;;;;4906452;29;20051;-35
2023/05/22 06:11:08;;;;;;;19.98;15.45;;;17.70;99.90;;;;;;4907073;29;20135;-35
2023/05/22 06:13:34;;;;;;;21.95;14.98;;;17.80;99.90;;;;;;4897719;29;20132;-35
2023/05/22 06:16:00;;;;;;;20.80;15.43;;;17.90;99.90;;;;;;4903004;29;20413;-35
2023/05/22 06:18:25;;;;;;;23.13;16.00;;;18.00;99.90;;;;;;4906378;29;20048;-35
2023/05/22 06:20:52;;;;;;;22.60;16.77;;;18.00;99.90;;;;;;4910066;29;20051;-35
2023/05/22 06:23:18;;;;;;;21.65;15.05;;;18.10;99.90;;;;;;4908622;29;20402;-35
2023/05/22 06:25:44;;;;;;;21.48;14.02;;;18.10;99.90;;;;;;4917766;29;20059;-35
2023/05/22 06:28:10;;;;;;;25.58;16.40;;;18.20;99.90;;;;;;4908324;29;20051;-35
2023/05/22 06:30:36;;;;;;;20.40;15.20;;;18.10;99.90;;;;;;4911641;29;20092;-35
2023/05/22 06:33:02;;;;;;;21.83;16.38;;;18.10;99.90;;;;;;4908824;29;20115;-35
2023/05/22 06:35:29;;;;;;;22.75;15.55;;;18.20;99.90;;;;;;4907045;29;23118;-35
2023/05/22 06:37:56;;;;;;;22.65;16.10;;;18.30;99.90;;;;;;4899432;29;20062;-35
2023/05/22 06:40:21;;;;;;;22.08;16.02;;;18.30;99.90;;;;;;4905552;29;21083;-35
2023/05/22 06:42:47;;;;;;;20.65;15.70;;;18.40;99.90;;;;;;4905519;29;20060;-35
2023/05/22 06:45:13;;;;;;;23.45;15.30;;;18.40;99.90;;;;;;4908198;29;20485;-35
2023/05/22 06:47:39;;;;;;;20.02;15.35;;;18.40;99.90;;;;;;4904754;29;20051;-35
2023/05/22 06:50:05;;;;;;;18.13;14.30;;;18.40;99.90;;;;;;4911712;29;20050;-35
2023/05/22 06:52:32;;;;;;;21.17;14.35;;;18.30;99.90;;;;;;4904847;29;20056;-35
2023/05/22 06:55:03;;;;;;;19.00;14.27;;;18.30;99.90;;;;;;4909111;29;20062;-35
2023/05/22 06:57:33;;;;;;;17.73;12.07;;;18.30;99.90;;;;;;4911280;29;20060;-35
2023/05/22 06:59:59;;;;;;;19.17;13.65;;;18.20;99.90;;;;;;4902259;29;20052;-35
2023/05/22 07:02:25;;;;;;;20.95;13.90;;;18.30;99.90;;;;;;4904942;29;20072;-35
2023/05/22 07:04:52;;;;;;;20.02;12.73;;;18.40;99.90;;;;;;4905258;29;20047;-35
2023/05/22 07:07:18;;;;;;;16.65;12.55;;;18.40;99.90;;;;;;4906987;29;20498;-35
2023/05/22 07:09:43;;;;;;;17.88;12.77;;;18.30;99.90;;;;;;4911854;29;20056;-35
2023/05/22 07:12:09;;;;;;;18.02;11.27;;;18.40;99.90;;;;;;4902925;29;20490;-35
2023/05/22 07:14:35;;;;;;;18.80;12.13;;;18.30;99.90;;;;;;4907813;29;20071;-35
2023/05/22 07:17:00;;;;;;;15.40;10.90;;;18.30;99.90;;;;;;4902805;29;20594;-35
2023/05/22 07:19:26;;;;;;;17.02;10.60;;;18.40;99.90;;;;;;4906498;29;20075;-35
2023/05/22 07:21:52;;;;;;;17.17;10.00;;;18.40;99.90;;;;;;4906269;29;20055;-35
2023/05/22 07:24:18;;;;;;;18.05;9.82;;;18.50;99.90;;;;;;4910003;29;20104;-35
2023/05/22 07:26:45;;;;;;;14.88;9.20;;;18.50;99.90;;;;;;4910932;29;20056;-35
2023/05/22 07:29:12;;;;;;;13.93;9.07;;;18.50;99.90;;;;;;4902926;29;20048;-35
2023/05/22 07:31:38;;;;;;;14.93;8.55;;;18.60;99.90;;;;;;4906842;29;20170;-35
2023/05/22 07:34:04;;;;;;;11.52;8.57;;;18.80;99.90;;;;;;4913570;29;20534;-35
2023/05/22 07:36:30;;;;;;;15.05;8.73;;;18.90;99.90;;;;;;4909778;29;20063;-35
2023/05/22 07:38:57;;;;;;;13.13;8.13;;;19.00;99.90;;;;;;4904808;29;20761;-35
2023/05/22 07:41:24;;;;;;;16.45;7.72;;;19.10;99.90;;;;;;4906494;29;20060;-35
2023/05/22 07:43:50;;;;;;;15.18;8.60;;;19.10;99.90;;;;;;4905112;29;20585;-35
2023/05/22 07:46:15;;;;;;;12.82;7.65;;;19.10;99.90;;;;;;4911150;29;20072;-35
2023/05/22 07:48:41;;;;;;;14.65;7.82;;;19.10;99.90;;;;;;4909224;29;20128;-35
2023/05/22 07:51:06;;;;;;;15.18;7.65;;;19.10;99.90;;;;;;4910150;29;20099;-35
2023/05/22 07:53:32;;;;;;;15.10;8.35;;;19.20;99.90;;;;;;4898000;29;20063;-35
2023/05/22 07:55:58;;;;;;;18.80;8.00;;;19.20;99.90;;;;;;4911473;29;20501;-35
2023/05/22 07:58:23;;;;;;;9.75;7.13;;;19.20;99.90;;;;;;4905264;29;20043;-35
2023/05/22 08:00:49;;;;;;;15.73;7.88;;;19.20;99.90;;;;;;4905961;29;20160;-35
2023/05/22 08:03:15;;;;;;;16.42;8.07;;;19.30;99.90;;;;;;4905229;29;20044;-35
2023/05/22 08:05:40;;;;;;;14.77;8.23;;;19.40;99.90;;;;;;4911296;29;20048;-35
2023/05/22 08:08:06;;;;;;;15.73;8.40;;;19.40;99.90;;;;;;4906790;29;20048;-35
2023/05/22 08:10:32;;;;;;;12.68;8.35;;;19.50;99.90;;;;;;4907904;29;20052;-35
2023/05/22 08:13:01;;;;;;;12.18;8.70;;;19.50;99.90;;;;;;4907719;29;22489;-35
2023/05/22 08:15:27;;;;;;;12.48;8.90;;;19.50;99.90;;;;;;4907599;29;20147;-35
2023/05/22 08:17:52;;;;;;;15.75;8.10;;;19.50;99.90;;;;;;4910191;29;20146;-35
2023/05/22 08:20:18;;;;;;;11.55;7.85;;;19.60;99.90;;;;;;4903577;29;20112;-35
2023/05/22 08:22:44;;;;;;;11.95;7.32;;;19.70;99.90;;;;;;4903633;29;20121;-35
2023/05/22 08:25:09;;;;;;;12.13;7.10;;;19.80;99.90;;;;;;4907474;29;20056;-35
2023/05/22 08:27:35;;;;;;;14.88;6.90;;;19.90;99.90;;;;;;4908298;29;20414;-35
2023/05/22 08:30:03;;;;;;;16.90;7.60;;;20.00;99.90;;;;;;4906414;29;20052;-35
2023/05/22 08:32:28;;;;;;;10.77;6.93;;;20.10;99.90;;;;;;4898259;29;20582;-35
2023/05/22 08:34:54;;;;;;;10.02;6.57;;;20.10;99.90;;;;;;4906160;29;20058;-35
2023/05/22 08:37:20;;;;;;;10.68;7.07;;;20.10;99.90;;;;;;4905624;29;20056;-35
2023/05/22 08:39:45;;;;;;;11.18;6.35;;;20.00;99.90;;;;;;4911407;29;20051;-35
2023/05/22 08:42:11;;;;;;;10.05;6.80;;;20.10;99.90;;;;;;4910102;29;20052;-35
2023/05/22 08:44:38;;;;;;;11.13;5.78;;;20.30;99.90;;;;;;4906560;29;20079;-35
2023/05/22 08:47:08;;;;;;;10.65;6.65;;;20.50;99.90;;;;;;4912245;29;20087;-35
2023/05/22 08:49:34;;;;;;;11.30;6.28;;;20.60;99.90;;;;;;4914275;29;20494;-35
2023/05/22 08:52:17;;;;;;;14.65;6.82;;;20.70;99.90;;;;;;4909744;29;20078;-35
2023/05/22 08:54:48;;;;;;;9.65;6.88;;;20.80;99.90;;;;;;4901558;29;20100;-36
2023/05/22 08:57:15;;;;;;;10.13;5.95;;;20.90;99.90;;;;;;4906024;29;20054;-35
2023/05/22 08:59:42;;;;;;;12.65;6.40;;;21.00;99.90;;;;;;4903299;29;21105;-35
2023/05/22 09:02:08;;;;;;;11.00;6.95;;;21.10;99.90;;;;;;4908791;29;20060;-35
2023/05/22 09:04:34;;;;;;;14.50;6.70;;;21.20;99.90;;;;;;4906342;29;20056;-35
2023/05/22 09:07:04;;;;;;;10.68;5.90;;;21.30;99.90;;;;;;4912594;29;20051;-35
2023/05/22 09:09:31;;;;;;;10.25;6.18;;;21.40;99.90;;;;;;4910894;29;20048;-35
2023/05/22 09:11:57;;;;;;;11.85;6.35;;;21.50;99.90;;;;;;4893314;29;20051;-35
2023/05/22 09:14:24;;;;;;;14.90;5.95;;;21.60;99.90;;;;;;4911482;29;20062;-35
2023/05/22 09:16:51;;;;;;;8.80;6.10;;;21.60;99.90;;;;;;4911919;29;20052;-35
2023/05/22 09:19:17;;;;;;;8.70;6.47;;;21.70;99.90;;;;;;4905745;29;20076;-35
2023/05/22 09:21:43;;;;;;;9.15;5.78;;;21.70;99.90;;;;;;4907329;29;20079;-35
2023/05/22 09:24:09;;;;;;;12.32;6.85;;;21.70;99.90;;;;;;4907637;29;20147;-35
2023/05/22 09:26:37;;;;;;;8.75;6.43;;;21.80;99.90;;;;;;4910445;29;20048;-35
2023/05/22 09:29:04;;;;;;;10.80;6.90;;;21.80;99.90;;;;;;4908433;29;20569;-35
2023/05/22 09:31:30;;;;;;;9.32;6.10;;;21.90;99.90;;;;;;4906676;29;20494;-35
2023/05/22 09:33:57;;;;;;;8.07;5.68;;;21.90;99.90;;;;;;4910019;29;20135;-35
2023/05/22 09:36:31;;;;;;;10.48;6.55;;;22.00;99.90;;;;;;4909679;29;20044;-35
2023/05/22 09:38:59;;;;;;;9.50;5.68;;;22.10;99.90;;;;;;4911869;29;20490;-35
2023/05/22 09:41:26;;;;;;;10.73;6.93;;;22.20;99.90;;;;;;4913347;29;20054;-35
2023/05/22 09:43:52;;;;;;;12.07;6.60;;;22.30;99.90;;;;;;4891208;29;20055;-35
2023/05/22 09:46:18;;;;;;;9.32;6.68;;;22.40;99.90;;;;;;4910947;29;20051;-35
2023/05/22 09:48:49;;;;;;;11.30;6.82;;;22.50;99.90;;;;;;4914232;29;20517;-35
2023/05/22 09:51:15;;;;;;;9.98;6.05;;;22.50;99.90;;;;;;4906669;29;20386;-35
2023/05/22 09:53:43;;;;;;;12.20;7.38;;;22.70;99.90;;;;;;4912648;29;20040;-35
2023/05/22 09:56:12;;;;;;;10.45;6.85;;;22.90;99.90;;;;;;4908224;29;20164;-35
2023/05/22 09:58:40;;;;;;;11.48;6.63;;;22.90;99.90;;;;;;4905726;29;20055;-35
2023/05/22 10:01:09;;;;;;;10.07;6.20;;;23.00;99.90;;;;;;4911095;29;20147;-35
2023/05/22 10:03:38;;;;;;;11.43;7.75;;;23.00;99.90;;;;;;4910626;29;20056;-35
2023/05/22 10:06:05;;;;;;;13.57;6.70;;;23.20;99.90;;;;;;4907842;29;20101;-35
2023/05/22 10:08:40;;;;;;;11.38;7.30;;;23.20;99.90;;;;;;4912530;29;20056;-36
2023/05/22 10:11:07;;;;;;;9.88;7.47;;;23.30;99.90;;;;;;4904985;29;20083;-35
2023/05/22 10:13:34;;;;;;;9.10;6.07;;;23.40;99.90;;;;;;4904418;29;20056;-36
2023/05/22 10:16:01;;;;;;;8.40;6.53;;;23.50;99.90;;;;;;4906112;29;20048;-35
2023/05/22 10:18:28;;;;;;;8.20;6.47;;;23.60;99.90;;;;;;4907127;29;20040;-36
2023/05/22 10:20:54;;;;;;;11.90;7.20;;;23.60;99.90;;;;;;4908813;29;20044;-36
2023/05/22 10:23:21;;;;;;;11.57;7.47;;;23.80;99.90;;;;;;4904703;29;20602;-36
2023/05/22 10:25:48;;;;;;;11.30;7.25;;;23.90;99.90;;;;;;4910268;29;20052;-35
2023/05/22 10:28:23;;;;;;;17.13;8.25;;;24.10;99.90;;;;;;4904170;29;20131;-36
2023/05/22 10:31:15;;;;;;;12.25;7.57;;;24.20;99.90;;;;;;4904530;29;20060;-37
2023/05/22 10:33:43;;;;;;;;;;;24.30;99.90;;;;;;4906586;29;20506;-36
2023/05/22 10:36:32;;;;;;;13.95;8.18;;;24.40;99.90;;;;;;4905430;29;19927;-36
2023/05/22 10:39:19;;;;;;;13.27;8.43;;;24.50;99.90;;;;;;4908033;29;20490;-36
2023/05/22 10:41:45;;;;;;;13.05;8.60;;;24.50;99.90;;;;;;4910314;29;20052;-36
2023/05/22 10:44:10;;;;;;;13.02;8.52;;;24.50;99.90;;;;;;4913143;29;20573;-36
2023/05/22 10:46:36;;;;;;;13.02;7.72;;;24.60;99.90;;;;;;4903897;29;20145;-36
2023/05/22 10:49:02;;;;;;;11.60;7.57;;;24.70;99.90;;;;;;4906745;29;20079;-36
2023/05/22 10:51:27;;;;;;;13.95;8.13;;;24.80;99.90;;;;;;4907248;29;20143;-36
2023/05/22 10:54:01;;;;;;;12.75;8.25;;;24.90;99.90;;;;;;4906398;29;20131;-36
2023/05/22 10:56:34;;;;;;;13.23;8.63;;;25.00;99.90;;;;;;4899748;29;20051;-36
2023/05/22 10:59:03;;;;;;;12.32;8.63;;;25.10;99.90;;;;;;4909473;29;20066;-36
2023/05/22 11:01:29;;;;;;;11.77;7.70;;;25.20;99.90;;;;;;4893221;29;20145;-36
2023/05/22 11:04:09;;;;;;;12.55;8.95;;;25.20;99.90;;;;;;4905095;29;20072;-36
2023/05/22 11:07:04;;;;;;;11.05;7.75;;;25.30;99.90;;;;;;4911388;29;20060;-36
2023/05/22 11:09:40;;;;;;;10.98;8.50;;;25.40;99.90;;;;;;4908330;29;20064;-36
2023/05/22 11:12:29;;;;;;;13.18;8.02;;;25.50;99.90;;;;;;4909124;29;20775;-36
2023/05/22 11:14:56;;;;;;;10.07;7.15;;;25.50;99.90;;;;;;4910219;29;20078;-36
2023/05/22 11:17:27;;;;;;;11.05;8.05;;;25.40;99.90;;;;;;4909392;29;20048;-36
2023/05/22 11:20:04;;;;;;;11.10;8.10;;;25.60;99.90;;;;;;4909892;29;20505;-36
2023/05/22 11:22:31;;;;;;;11.00;8.00;;;25.60;99.90;;;;;;4905679;29;20071;-36
2023/05/22 11:24:58;;;;;;;11.57;8.63;;;25.70;99.90;;;;;;4911318;29;20130;-36
2023/05/22 11:27:24;;;;;;;12.60;9.27;;;25.80;99.90;;;;;;4910572;29;20052;-36
2023/05/22 11:29:50;;;;;;;10.18;7.68;;;26.00;99.90;;;;;;4906210;29;20147;-36
2023/05/22 11:32:19;;;;;;;13.35;8.73;;;26.00;99.90;;;;;;4903711;29;20083;-36
2023/05/22 11:34:51;;;;;;;10.07;8.18;;;26.00;99.90;;;;;;4894721;29;20084;-36
2023/05/22 11:37:18;;;;;;;12.02;7.70;;;26.10;99.90;;;;;;4912242;29;20044;-36
2023/05/22 11:39:54;;;;;;;12.13;9.60;;;26.30;99.90;;;;;;4910892;29;20066;-36
2023/05/22 11:42:20;;;;;;;11.65;8.40;;;26.50;99.90;;;;;;4907978;29;20592;-36
2023/05/22 11:44:46;;;;;;;15.68;10.05;;;26.50;99.90;;;;;;4910946;29;20146;-36
2023/05/22 11:47:12;;;;;;;13.73;8.02;;;26.50;99.90;;;;;;4910465;29;20395;-36
2023/05/22 11:49:39;;;;;;;13.88;8.15;;;26.50;99.90;;;;;;4912552;29;20083;-36
2023/05/22 11:52:05;;;;;;;12.65;8.98;;;26.50;99.90;;;;;;4906581;29;20126;-36
2023/05/22 11:54:31;;;;;;;11.55;9.38;;;26.50;99.90;;;;;;4908051;29;20494;-36
2023/05/22 11:56:57;;;;;;;14.77;9.20;;;26.60;99.90;;;;;;4911511;29;20071;-36
2023/05/22 11:59:23;;;;;;;11.43;8.13;;;26.50;99.90;;;;;;4903016;29;20138;-36
2023/05/22 12:01:51;;;;;;;12.27;8.32;;;26.40;99.90;;;;;;4903990;29;20071;-36
2023/05/22 12:04:17;;;;;;;9.95;8.40;;;26.40;99.90;;;;;;4906060;29;20530;-36
2023/05/22 12:06:43;;;;;;;12.20;8.40;;;26.40;99.90;;;;;;4900801;29;21456;-36
2023/05/22 12:09:09;;;;;;;8.98;6.75;;;26.40;99.90;;;;;;4908980;29;20052;-36
2023/05/22 12:11:36;;;;;;;10.10;8.10;;;26.50;99.90;;;;;;4907466;29;20056;-36
2023/05/22 12:14:05;;;;;;;10.82;8.70;;;26.80;99.90;;;;;;4910375;29;20116;-36
2023/05/22 12:16:35;;;;;;;12.63;8.68;;;26.90;99.90;;;;;;4907491;29;20084;-36
2023/05/22 12:19:07;;;;;;;11.30;7.85;;;27.00;99.90;;;;;;4907466;29;20055;-36
2023/05/22 12:21:35;;;;;;;11.90;8.75;;;27.00;99.90;;;;;;4912421;29;20486;-36
2023/05/22 12:24:05;;;;;;;9.25;7.57;;;27.10;99.90;;;;;;4909596;29;20117;-36
2023/05/22 12:26:35;;;;;;;9.57;7.20;;;27.00;99.90;;;;;;4910290;29;20060;-36
2023/05/22 12:29:01;;;;;;;13.35;8.10;;;27.00;99.90;;;;;;4913809;29;20056;-36
2023/05/22 12:31:27;;;;;;;10.65;7.90;;;26.90;99.90;;;;;;4899775;29;20044;-36
2023/05/22 12:33:53;;;;;;;12.30;7.85;;;26.90;99.90;;;;;;4907465;29;20058;-36
2023/05/22 12:36:19;;;;;;;8.77;6.47;;;26.80;99.90;;;;;;4912545;29;20226;-36
2023/05/22 12:38:45;;;;;;;7.25;5.50;;;26.60;99.90;;;;;;4912887;29;20098;-36
2023/05/22 12:41:11;;;;;;;7.05;5.32;;;26.70;99.90;;;;;;4908120;29;20160;-36
2023/05/22 12:43:36;;;;;;;11.20;6.10;;;26.70;99.90;;;;;;4913109;29;20056;-36
2023/05/22 12:46:02;;;;;;;8.15;7.00;;;26.80;99.90;;;;;;4912498;29;20060;-36
2023/05/22 12:48:28;;;;;;;9.63;7.50;;;26.80;99.90;;;;;;4908383;29;20069;-36
2023/05/22 12:50:54;;;;;;;9.27;7.40;;;26.90;99.90;;;;;;4911816;29;20657;-36
2023/05/22 12:53:19;;;;;;;8.98;7.72;;;27.00;99.90;;;;;;4916038;29;20051;-36
2023/05/22 12:55:45;;;;;;;14.43;8.27;;;26.80;99.90;;;;;;4911348;29;21756;-35
2023/05/22 12:58:11;;;;;;;8.82;7.65;;;26.70;99.90;;;;;;4912755;29;20075;-36
2023/05/22 13:00:36;;;;;;;10.45;7.60;;;26.60;99.90;;;;;;4914520;29;20087;-36
2023/05/22 13:03:04;;;;;;;12.05;7.40;;;26.60;99.90;;;;;;4908049;29;20159;-36
2023/05/22 13:05:29;;;;;;;11.05;8.52;;;26.60;99.90;;;;;;4909303;29;20470;-36
2023/05/22 13:07:55;;;;;;;13.02;8.60;;;26.80;99.90;;;;;;4905968;29;20182;-36
2023/05/22 13:10:21;;;;;;;15.60;8.77;;;26.90;99.90;;;;;;4910184;29;20051;-36
2023/05/22 13:12:49;;;;;;;11.38;9.45;;;26.90;99.90;;;;;;4913221;29;20056;-35
2023/05/22 13:15:15;;;;;;;13.13;9.85;;;26.80;99.90;;;;;;4916646;29;20048;-36
2023/05/22 13:17:41;;;;;;;15.25;10.02;;;26.60;99.90;;;;;;4914269;29;20078;-35
2023/05/22 13:20:07;;;;;;;12.95;9.93;;;26.30;99.90;;;;;;4885693;29;20052;-35
2023/05/22 13:22:33;;;;;;;13.18;9.82;;;26.30;99.90;;;;;;4905558;29;20062;-36
2023/05/22 13:24:58;;;;;;;10.70;9.48;;;26.30;99.90;;;;;;4906205;29;20056;-36
2023/05/22 13:27:24;;;;;;;9.90;8.43;;;26.40;99.90;;;;;;4908749;29;20075;-35
2023/05/22 13:29:50;;;;;;;10.70;9.43;;;26.50;99.90;;;;;;4907264;29;20052;-36
2023/05/22 13:32:18;;;;;;;11.52;9.60;;;26.60;99.90;;;;;;4911769;29;20425;-36
2023/05/22 13:34:43;;;;;;;13.77;9.70;;;26.60;99.90;;;;;;4905135;29;20135;-36
2023/05/22 13:37:09;;;;;;;10.23;9.07;;;26.60;99.90;;;;;;4901345;29;20142;-36
2023/05/22 13:39:35;;;;;;;11.88;9.65;;;26.70;99.90;;;;;;4899743;29;20060;-36
2023/05/22 13:42:01;;;;;;;12.65;8.77;;;26.80;99.90;;;;;;4914749;29;20056;-36
2023/05/22 13:44:27;;;;;;;10.40;8.93;;;26.80;99.90;;;;;;4910739;29;20055;-36
2023/05/22 13:46:52;;;;;;;11.05;9.25;;;26.90;99.90;;;;;;4908526;29;20083;-36
2023/05/22 13:49:18;;;;;;;12.07;8.38;;;27.00;99.90;;;;;;4905933;29;20054;-37
2023/05/22 13:51:44;;;;;;;10.98;8.80;;;27.00;99.90;;;;;;4908851;29;20052;-36
2023/05/22 13:54:10;;;;;;;8.90;8.00;;;27.20;99.90;;;;;;4910690;29;20048;-36
2023/05/22 13:56:35;;;;;;;10.35;8.55;;;27.40;99.90;;;;;;4895914;29;20083;-37
2023/05/22 13:59:01;;;;;;;11.77;9.13;;;27.60;99.90;;;;;;4910791;29;20066;-35
2023/05/22 14:01:27;;;;;;;11.45;9.00;;;27.70;99.90;;;;;;4902796;29;20098;-35
2023/05/22 14:03:52;;;;;;;9.90;7.90;;;27.40;99.90;;;;;;4909836;29;20411;-34
2023/05/22 14:06:18;;;;;;;12.32;9.10;;;27.40;99.90;;;;;;4912505;29;20048;-34
2023/05/22 14:08:44;;;;;;;8.63;7.50;;;27.50;99.90;;;;;;4917862;29;20044;-34
2023/05/22 14:11:09;;;;;;;12.98;8.23;;;27.80;99.90;;;;;;4909167;29;20048;-35
2023/05/22 14:13:35;;;;;;;10.00;8.15;;;28.10;99.90;;;;;;4911686;29;20399;-37
2023/05/22 14:16:01;;;;;;;12.13;7.40;;;28.30;99.90;;;;;;4907552;29;20054;-35
2023/05/22 14:18:26;;;;;;;10.38;7.10;;;28.50;99.90;;;;;;4907869;29;20541;-34
2023/05/22 14:20:52;;;;;;;9.70;7.47;;;28.60;99.90;;;;;;4906511;29;20123;-35
2023/05/22 14:23:18;;;;;;;9.45;6.97;;;28.60;99.90;;;;;;4903803;29;20052;-35
2023/05/22 14:25:43;;;;;;;10.02;5.90;;;28.60;99.90;;;;;;4906205;29;21112;-35
2023/05/22 14:28:10;;;;;;;6.53;4.82;;;28.50;99.90;;;;;;4909035;29;20136;-35
2023/05/22 14:30:36;;;;;;;7.97;4.95;;;28.70;99.90;;;;;;4909828;29;20623;-35
2023/05/22 14:33:01;;;;;;;6.30;4.97;;;28.90;99.90;;;;;;4907857;29;20060;-35
2023/05/22 14:35:27;;;;;;;8.88;5.00;;;29.10;99.90;;;;;;4909921;29;20149;-35
2023/05/22 14:37:53;;;;;;;6.47;5.00;;;29.20;99.90;;;;;;4906055;29;20056;-35
2023/05/22 14:40:18;;;;;;;6.57;4.93;;;29.40;99.90;;;;;;4906653;29;20617;-35